This is the latest recevied weather packets stored in our database for station/object GW1596. If no packets are shown the sender has not sent any weather packets the latest 10 day(s).
| Time | Temp. | Humidity | Pressure | Rain* | Wind** | Luminosity | Snow |
|---|---|---|---|---|---|---|---|
| 1777781183 | 1.11° C | 95% | 1020.3 hPa | 0 mm | - | - | - |
| 1777780492 | 1.11° C | 95% | 1020.3 hPa | 0 mm | - | - | - |
| 1777779736 | 1.67° C | 94% | 1020.3 hPa | 0 mm | - | - | - |
| 1777777224 | 2.22° C | 91% | 1020.3 hPa | 0 mm | - | - | - |
| 1777775778 | 2.78° C | 89% | 1019.9 hPa | 0 mm | - | - | - |
| 1777771814 | 5.56° C | 75% | 1019.9 hPa | 0 mm | - | - | - |
| 1777769323 | 7.22° C | 60% | 1019.3 hPa | 0 mm | - | - | - |
| 1777767495 | 8.33° C | 57% | 1018.9 hPa | 0 mm | - | - | - |
| 1777765721 | 9.44° C | 52% | 1018.6 hPa | 0 mm | - | - | - |
| 1777763532 | 10° C | 45% | 1018.2 hPa | 0 mm | - | - | - |
| 1777758851 | 11.67° C | 37% | 1017.6 hPa | 0 mm | - | - | - |
| 1777755634 | 12.22° C | 37% | 1017.2 hPa | 0 mm | - | - | - |
| 1777751654 | 12.22° C | 35% | 1017.6 hPa | 0 mm | - | - | - |
| 1777750969 | 12.22° C | 36% | 1017.6 hPa | 0 mm | - | - | - |
| 1777746280 | 12.78° C | 36% | 1017.9 hPa | 0 mm | - | - | - |
| 1777745574 | 11.67° C | 42% | 1018.2 hPa | 0 mm | - | - | - |
| 1777737984 | 11.11° C | 42% | 1019.3 hPa | 0 mm | - | - | - |
| 1777735839 | 10.56° C | 44% | 1018.9 hPa | 0 mm | - | - | - |
| 1777735453 | 11.11° C | 44% | 1018.6 hPa | 0 mm | - | - | - |
| 1777734042 | 10° C | 46% | 1018.9 hPa | 0 mm | - | - | - |
| 1777732610 | 10° C | 55% | 1018.9 hPa | 0 mm | - | - | - |
| 1777727567 | 6.67° C | 88% | 1019.3 hPa | 0 mm | - | - | - |
| 1777726834 | 6.67° C | 94% | 1019.3 hPa | 0 mm | - | - | - |
| 1777723604 | 2.78° C | 99% | 1019.3 hPa | 0 mm | - | - | - |
| 1777722891 | 2.22° C | 99% | 1019.3 hPa | 0 mm | - | - | - |
* Rain since midnight (hover to see other rain measurements)
** Current wind speed in m/s (hover to see current wind gust speed)